Hill City, Minnesota
Current Conditions -  °F | °C
As of 7:35 PM on Thursday 18 Dec 2014 (Local Time) from KGPZ Reporting Station
Overcast Overcast  
Wind Chill:   Ceiling: 800
Heat Index: 19°   Visibility: 10mi
Dew Point: 18°   Wind: 9mph
Humidity: 93%   Direction: 160°SSE
Pressure: 30.2"   Gusts: NA
Location:  46.99°N, 93.6°W
Report Text: KGPZ 190135Z AUTO 16008KT 10SM OVC008 M07/M08 A3020 RMK AO1
Loading
Personal Weather Stations






























Interactive Weather Map New forecast layout! Learn more

10-Day Weather Forecast

Advertisements
Track Severe Weather on mobile